Time;durP1;ratioP1;P1;durP2;ratioP2;P2;SDS_P1;SDS_P2;PMS_P1;PMS_P2;Temp;Humidity;BMP_temperature;BMP_pressure;BME280_temperature;BME280_humidity;BME280_pressure;Samples;Min_cycle;Max_cycle;Signal;HPM_P1;HPM_P2
2022/10/14 00:01:15;;;;;;;14.00;11.02;;;;;;;-145.49;100.00;62790.56;4972162;28;20525;-79
2022/10/14 00:03:44;;;;;;;13.43;10.63;;;;;;;-145.49;100.00;62790.56;4977697;28;20042;-79
2022/10/14 00:06:14;;;;;;;15.77;10.55;;;;;;;-145.49;100.00;62790.56;4973109;28;20035;-79
2022/10/14 00:08:46;;;;;;;13.18;10.85;;;;;;;-145.49;100.00;62790.56;4967375;28;20509;-79
2022/10/14 00:11:23;;;;;;;16.42;11.55;;;;;;;-145.49;100.00;62790.56;4979342;28;20512;-78
2022/10/14 00:13:55;;;;;;;18.67;13.10;;;;;;;-145.49;100.00;62790.56;4986070;28;20039;-79
2022/10/14 00:16:25;;;;;;;14.35;10.60;;;;;;;-145.49;100.00;62790.56;4974086;28;20035;-79
2022/10/14 00:18:56;;;;;;;15.77;9.82;;;;;;;-145.49;100.00;62790.56;4973658;28;20041;-79
2022/10/14 00:21:28;;;;;;;16.17;10.43;;;;;;;-145.49;100.00;62790.56;4969170;28;20636;-79
2022/10/14 00:23:57;;;;;;;10.77;9.68;;;;;;;-145.49;100.00;62790.56;4962295;28;20046;-79
2022/10/14 00:26:33;;;;;;;12.75;10.95;;;;;;;-145.49;100.00;62790.56;4955466;28;20042;-79
2022/10/14 00:29:04;;;;;;;16.20;11.30;;;;;;;-145.49;100.00;62790.56;4968142;28;20031;-79
2022/10/14 00:31:35;;;;;;;23.73;12.32;;;;;;;-145.49;100.00;62790.56;4970190;28;20035;-79
2022/10/14 00:34:04;;;;;;;13.30;10.00;;;;;;;-145.49;100.00;62790.56;4976761;28;20050;-80
2022/10/14 00:36:30;;;;;;;11.55;8.93;;;;;;;-145.49;100.00;62790.56;4983479;28;20034;-79
2022/10/14 00:39:03;;;;;;;15.25;9.98;;;;;;;-145.49;100.00;62790.56;4985242;28;20556;-79
2022/10/14 00:41:35;;;;;;;13.32;10.55;;;;;;;-145.49;100.00;62790.56;4967139;28;20030;-79
2022/10/14 00:44:13;;;;;;;17.10;11.68;;;;;;;-145.49;100.00;62790.56;4950994;28;20047;-79
2022/10/14 00:46:47;;;;;;;11.50;9.40;;;;;;;-145.49;100.00;62790.56;4961385;28;20042;-79
2022/10/14 00:49:17;;;;;;;13.27;11.13;;;;;;;-145.49;100.00;62790.56;4989656;28;20038;-79
2022/10/14 00:51:53;;;;;;;14.25;11.32;;;;;;;-145.49;100.00;62790.56;4972962;28;20420;-79
2022/10/14 00:54:23;;;;;;;18.02;11.85;;;;;;;-145.49;100.00;62790.56;4983880;28;20035;-79
2022/10/14 00:56:51;;;;;;;12.18;8.73;;;;;;;-145.49;100.00;62790.56;4980615;28;20026;-79
2022/10/14 00:59:18;;;;;;;15.60;10.32;;;;;;;-145.49;100.00;62790.56;4989104;28;20038;-79
2022/10/14 01:01:44;;;;;;;16.42;10.65;;;;;;;-145.49;100.00;62790.56;4967889;28;20049;-79
2022/10/14 01:04:11;;;;;;;15.25;11.55;;;;;;;-145.49;100.00;62790.56;4981958;28;20038;-79
2022/10/14 01:06:44;;;;;;;14.63;10.52;;;;;;;-145.49;100.00;62790.56;4960738;28;20404;-79
2022/10/14 01:09:25;;;;;;;11.40;9.75;;;;;;;-145.49;100.00;62790.56;4978773;28;20041;-79
2022/10/14 01:12:18;;;;;;;15.82;11.70;;;;;;;-145.49;100.00;62790.56;4973768;28;20460;-79
2022/10/14 01:15:04;;;;;;;11.85;9.20;;;;;;;-145.49;100.00;62790.56;4965355;28;20038;-78
2022/10/14 01:17:42;;;;;;;16.35;12.57;;;;;;;-145.49;100.00;62790.56;4979585;28;20034;-78
2022/10/14 01:20:11;;;;;;;12.75;9.43;;;;;;;-145.49;100.00;62790.56;4959587;28;20034;-79
2022/10/14 01:23:13;;;;;;;11.48;9.38;;;;;;;-145.49;100.00;62790.56;4975794;28;20378;-78
2022/10/14 01:26:18;;;;;;;13.95;12.38;;;;;;;-145.49;100.00;62790.56;4956744;28;20550;-79
2022/10/14 01:29:22;;;;;;;9.77;8.77;;;;;;;-145.49;100.00;62790.56;4961819;28;20039;-79
2022/10/14 01:32:01;;;;;;;15.15;10.45;;;;;;;-145.49;100.00;62790.56;4944800;28;20050;-79
2022/10/14 01:34:37;;;;;;;17.08;10.75;;;;;;;-145.49;100.00;62790.56;4958657;28;20053;-78
2022/10/14 01:37:11;;;;;;;15.85;11.35;;;;;;;-145.49;100.00;62790.56;4988607;28;20038;-78
2022/10/14 01:39:47;;;;;;;12.63;9.88;;;;;;;-145.49;100.00;62790.56;4969178;28;20058;-78
2022/10/14 01:42:21;;;;;;;11.77;10.02;;;;;;;-145.49;100.00;62790.56;4976017;28;20034;-78
2022/10/14 01:44:57;;;;;;;12.65;9.50;;;;;;;-145.49;100.00;62790.56;4973362;28;20049;-78
2022/10/14 01:47:31;;;;;;;20.90;11.55;;;;;;;-145.49;100.00;62790.56;4971500;28;20039;-78
2022/10/14 01:50:30;;;;;;;14.75;11.32;;;;;;;-145.49;100.00;62790.56;4963484;28;20030;-78
2022/10/14 01:53:10;;;;;;;16.95;9.55;;;;;;;-145.49;100.00;62790.56;4932873;28;20397;-78
2022/10/14 01:55:43;;;;;;;14.13;11.90;;;;;;;-145.49;100.00;62790.56;4967291;28;20038;-79
2022/10/14 01:58:12;;;;;;;18.58;11.00;;;;;;;-145.49;100.00;62790.56;4962743;28;20043;-79
2022/10/14 02:00:46;;;;;;;14.60;12.38;;;;;;;-145.49;100.00;62790.56;4963966;28;20043;-79
2022/10/14 02:03:13;;;;;;;10.15;9.05;;;;;;;-145.49;100.00;62790.56;4947324;28;20039;-80
2022/10/14 02:05:47;;;;;;;19.25;13.32;;;;;;;-145.49;100.00;62790.56;4966566;28;20042;-79
2022/10/14 02:08:19;;;;;;;21.95;11.13;;;;;;;-145.49;100.00;62790.56;4970713;28;20420;-80
2022/10/14 02:10:56;;;;;;;10.65;9.55;;;;;;;-145.49;100.00;62790.56;4970048;28;20039;-79
2022/10/14 02:13:28;;;;;;;11.60;9.30;;;;;;;-145.49;100.00;62790.56;4975954;28;20397;-80
2022/10/14 02:16:05;;;;;;;9.77;8.55;;;;;;;-145.49;100.00;62790.56;4971364;28;20035;-80
2022/10/14 02:18:52;;;;;;;13.82;10.80;;;;;;;-145.49;100.00;62790.56;4978751;28;20397;-80
2022/10/14 02:21:25;;;;;;;13.18;10.18;;;;;;;-145.49;100.00;62790.56;4980182;28;20053;-79
2022/10/14 02:24:16;;;;;;;14.23;11.95;;;;;;;-145.49;100.00;62790.56;4967717;28;20050;-79
2022/10/14 02:26:43;;;;;;;17.17;11.57;;;;;;;-145.49;100.00;62790.56;4989795;28;20034;-79
2022/10/14 02:29:16;;;;;;;17.63;8.93;;;;;;;-145.49;100.00;62790.56;4975102;28;20031;-79
2022/10/14 02:31:47;;;;;;;14.23;10.73;;;;;;;-145.49;100.00;62790.56;4970314;28;20042;-80
2022/10/14 02:34:21;;;;;;;16.35;10.95;;;;;;;-145.49;100.00;62790.56;4951448;28;20070;-80
2022/10/14 02:36:48;;;;;;;19.45;14.27;;;;;;;-145.49;100.00;62790.56;4970932;28;20466;-80
2022/10/14 02:39:28;;;;;;;15.52;11.63;;;;;;;-145.49;100.00;62790.56;4975706;28;20480;-79
2022/10/14 02:42:02;;;;;;;12.88;11.00;;;;;;;-145.49;100.00;62790.56;4958054;28;20039;-79
2022/10/14 02:44:30;;;;;;;17.95;12.18;;;;;;;-145.49;100.00;62790.56;4967751;28;20038;-79
2022/10/14 02:46:57;;;;;;;17.20;12.52;;;;;;;-145.49;100.00;62790.56;4989821;28;20034;-79
2022/10/14 02:49:27;;;;;;;19.20;10.73;;;;;;;-145.49;100.00;62790.56;4954978;28;20486;-79
2022/10/14 02:51:56;;;;;;;15.77;10.90;;;;;;;-145.49;100.00;62790.56;4966974;28;20046;-79
2022/10/14 02:54:24;;;;;;;13.70;10.02;;;;;;;-145.49;100.00;62790.56;4951596;28;20050;-79
2022/10/14 02:56:51;;;;;;;14.68;11.10;;;;;;;-145.49;100.00;62790.56;4972857;28;20043;-80
2022/10/14 02:59:19;;;;;;;16.45;12.07;;;;;;;-145.49;100.00;62790.56;4955173;28;20035;-79
2022/10/14 03:01:45;;;;;;;15.05;11.50;;;;;;;-145.49;100.00;62790.56;4985482;28;20042;-80
2022/10/14 03:04:14;;;;;;;15.15;11.48;;;;;;;-145.49;100.00;62790.56;4970811;28;20374;-80
2022/10/14 03:06:47;;;;;;;18.63;12.07;;;;;;;-145.49;100.00;62790.56;4980103;28;20039;-79
2022/10/14 03:09:13;;;;;;;15.82;11.02;;;;;;;-145.49;100.00;62790.56;4982315;28;20035;-80
2022/10/14 03:11:42;;;;;;;16.23;10.43;;;;;;;-145.49;100.00;62790.56;4978265;28;20393;-78
2022/10/14 03:14:13;;;;;;;15.57;11.30;;;;;;;-145.49;100.00;62790.56;4981338;28;20038;-79
2022/10/14 03:16:40;;;;;;;15.40;10.30;;;;;;;-145.49;100.00;62790.56;4951260;28;20031;-78
2022/10/14 03:19:13;;;;;;;13.27;11.73;;;;;;;-145.49;100.00;62790.56;4972275;28;20039;-78
2022/10/14 03:21:48;;;;;;;21.15;10.80;;;;;;;-145.49;100.00;62790.56;4982063;28;20031;-78
2022/10/14 03:24:23;;;;;;;15.57;11.25;;;;;;;-145.49;100.00;62790.56;4962287;28;20035;-78
2022/10/14 03:27:08;;;;;;;13.23;11.05;;;;;;;-145.49;100.00;62790.56;4949747;28;20043;-78
2022/10/14 03:29:35;;;;;;;13.98;11.85;;;;;;;-145.49;100.00;62790.56;4968928;28;20580;-79
2022/10/14 03:32:14;;;;;;;16.55;13.02;;;;;;;-145.49;100.00;62790.56;4951524;28;20058;-78
2022/10/14 03:35:24;;;;;;;16.92;11.07;;;;;;;-145.49;100.00;62790.56;4967736;28;20042;-79
2022/10/14 03:37:58;;;;;;;15.38;11.07;;;;;;;-145.49;100.00;62790.56;4963264;28;20053;-78
2022/10/14 03:40:29;;;;;;;13.23;11.00;;;;;;;-145.49;100.00;62790.56;4963734;28;20035;-78
2022/10/14 03:43:02;;;;;;;13.60;12.20;;;;;;;-145.49;100.00;62790.56;4961633;28;20042;-79
2022/10/14 03:45:37;;;;;;;16.63;11.07;;;;;;;-145.49;100.00;62790.56;4989506;28;20488;-78
2022/10/14 03:48:08;;;;;;;17.45;10.38;;;;;;;-145.49;100.00;62790.56;4968588;28;20046;-78
2022/10/14 03:50:40;;;;;;;14.27;12.65;;;;;;;-145.49;100.00;62790.56;4968722;28;20477;-78
2022/10/14 03:53:08;;;;;;;17.02;11.93;;;;;;;-145.49;100.00;62790.56;4973514;28;20488;-77
2022/10/14 03:55:41;;;;;;;13.65;9.85;;;;;;;-145.49;100.00;62790.56;4970041;28;20039;-77
2022/10/14 03:58:10;;;;;;;12.52;10.27;;;;;;;-145.49;100.00;62790.56;4967780;28;20038;-77
2022/10/14 04:00:37;;;;;;;14.02;11.68;;;;;;;-145.49;100.00;62790.56;4983577;28;20045;-77
2022/10/14 04:03:16;;;;;;;13.07;10.85;;;;;;;-145.49;100.00;62790.56;4961367;28;20035;-78
2022/10/14 04:05:45;;;;;;;14.82;11.70;;;;;;;-145.49;100.00;62790.56;4954781;28;20043;-78
2022/10/14 04:08:16;;;;;;;13.95;11.63;;;;;;;-145.49;100.00;62790.56;4972534;28;20042;-78
2022/10/14 04:10:53;;;;;;;16.75;12.23;;;;;;;-145.49;100.00;62790.56;4971884;28;20485;-79
2022/10/14 04:13:20;;;;;;;15.43;13.05;;;;;;;-145.49;100.00;62790.56;4980640;28;20146;-78
2022/10/14 04:15:48;;;;;;;15.15;11.57;;;;;;;-145.49;100.00;62790.56;4958750;28;20035;-78
2022/10/14 04:18:25;;;;;;;17.55;11.90;;;;;;;-145.49;100.00;62790.56;4972123;28;20042;-78
2022/10/14 04:20:59;;;;;;;17.73;11.07;;;;;;;-145.49;100.00;62790.56;4973571;28;20256;-80
2022/10/14 04:23:34;;;;;;;15.10;13.40;;;;;;;-145.49;100.00;62790.56;4980838;28;20085;-79
2022/10/14 04:26:11;;;;;;;20.40;12.80;;;;;;;-145.49;100.00;62790.56;4972183;28;20489;-79
2022/10/14 04:28:44;;;;;;;14.63;11.27;;;;;;;-145.49;100.00;62790.56;4966689;28;20039;-80
2022/10/14 04:31:18;;;;;;;14.15;10.18;;;;;;;-145.49;100.00;62790.56;4965673;28;20050;-79
2022/10/14 04:33:56;;;;;;;14.38;12.25;;;;;;;-145.49;100.00;62790.56;4983879;28;20057;-79
2022/10/14 04:36:29;;;;;;;19.10;11.70;;;;;;;-145.49;100.00;62790.56;4987133;28;20030;-79
2022/10/14 04:39:02;;;;;;;16.33;12.00;;;;;;;-145.49;100.00;62790.56;4984309;28;20043;-79
2022/10/14 04:41:31;;;;;;;16.08;13.02;;;;;;;-145.49;100.00;62790.56;4955205;28;20119;-79
2022/10/14 04:44:02;;;;;;;16.33;10.23;;;;;;;-145.49;100.00;62790.56;4963523;28;20401;-78
2022/10/14 04:46:36;;;;;;;14.18;11.55;;;;;;;-145.49;100.00;62790.56;4939118;28;20523;-78
2022/10/14 04:49:02;;;;;;;16.77;8.80;;;;;;;-145.49;100.00;62790.56;4960777;28;20481;-78
2022/10/14 04:51:36;;;;;;;18.90;11.57;;;;;;;-145.49;100.00;62790.56;4950848;28;20046;-78
2022/10/14 04:54:16;;;;;;;15.98;11.50;;;;;;;-145.49;100.00;62790.56;4970349;28;20038;-78
2022/10/14 04:56:47;;;;;;;21.25;11.77;;;;;;;-145.49;100.00;62790.56;5003766;28;20022;-78
2022/10/14 04:59:15;;;;;;;16.38;12.07;;;;;;;-145.49;100.00;62790.56;4976771;28;20039;-78
2022/10/14 05:02:08;;;;;;;18.73;11.48;;;;;;;-145.49;100.00;62790.56;4960618;28;20503;-79
2022/10/14 05:04:41;;;;;;;17.02;11.27;;;;;;;-145.49;100.00;62790.56;4983065;28;20035;-79
2022/10/14 05:07:11;;;;;;;12.68;8.77;;;;;;;-145.49;100.00;62790.56;4973693;28;20431;-78
2022/10/14 05:09:37;;;;;;;15.35;10.40;;;;;;;-145.49;100.00;62790.56;4969279;28;20035;-80
2022/10/14 05:12:15;;;;;;;17.65;11.32;;;;;;;-145.49;100.00;62790.56;4970728;28;20049;-79
2022/10/14 05:14:50;;;;;;;17.65;10.65;;;;;;;-145.49;100.00;62790.56;4968739;28;20039;-79
2022/10/14 05:17:26;;;;;;;16.38;11.15;;;;;;;-145.49;100.00;62790.56;4958161;28;20038;-79
2022/10/14 05:19:54;;;;;;;17.92;13.00;;;;;;;-145.49;100.00;62790.56;4961567;28;20049;-79
2022/10/14 05:22:22;;;;;;;16.10;11.50;;;;;;;-145.49;100.00;62790.56;4971904;28;20038;-79
2022/10/14 05:24:51;;;;;;;17.02;13.52;;;;;;;-145.49;100.00;62790.56;4969779;28;20038;-80
2022/10/14 05:27:22;;;;;;;14.50;12.15;;;;;;;-145.49;100.00;62790.56;4968063;28;20370;-78
2022/10/14 05:29:49;;;;;;;15.25;11.40;;;;;;;-145.49;100.00;62790.56;4966965;28;20031;-78
2022/10/14 05:32:16;;;;;;;17.17;10.85;;;;;;;-145.49;100.00;62790.56;4976782;28;20496;-78
2022/10/14 05:34:45;;;;;;;16.52;12.27;;;;;;;-145.49;100.00;62790.56;4970898;28;20030;-78
2022/10/14 05:37:20;;;;;;;13.70;11.82;;;;;;;-145.49;100.00;62790.56;4970104;28;20038;-78
2022/10/14 05:39:50;;;;;;;13.67;10.90;;;;;;;-145.49;100.00;62790.56;4967590;28;20039;-78
2022/10/14 05:42:19;;;;;;;16.58;11.55;;;;;;;-145.49;100.00;62790.56;4975460;28;20034;-78
2022/10/14 05:44:48;;;;;;;13.30;10.30;;;;;;;-145.49;100.00;62790.56;4970982;23;20050;-74
2022/10/14 05:47:17;;;;;;;16.10;13.48;;;;;;;-145.49;100.00;62790.56;4913540;29;20049;-73
2022/10/14 05:49:46;;;;;;;18.17;11.32;;;;;;;-145.49;100.00;62790.56;4930431;29;20035;-73
2022/10/14 05:52:15;;;;;;;20.38;12.13;;;;;;;-145.49;100.00;62790.56;4933889;29;20050;-73
2022/10/14 05:54:47;;;;;;;20.95;12.98;;;;;;;-145.49;100.00;62790.56;4934358;28;20031;-73
2022/10/14 05:57:17;;;;;;;25.93;15.40;;;;;;;-145.49;100.00;62790.56;4932964;28;20486;-73
2022/10/14 05:59:44;;;;;;;21.65;15.85;;;;;;;-145.49;100.00;62790.56;4932934;28;20061;-73
2022/10/14 06:02:19;;;;;;;16.88;12.90;;;;;;;-145.49;100.00;62790.56;4949498;28;20047;-74
2022/10/14 06:04:46;;;;;;;21.63;11.75;;;;;;;-145.49;100.00;62790.56;4931815;29;20035;-74
2022/10/14 06:07:17;;;;;;;17.73;14.38;;;;;;;-145.49;100.00;62790.56;4933294;29;20043;-74
2022/10/14 06:09:48;;;;;;;17.00;14.10;;;;;;;-145.49;100.00;62790.56;4942306;28;20055;-73
2022/10/14 06:12:19;;;;;;;16.60;12.05;;;;;;;-145.49;100.00;62790.56;4933552;29;20046;-73
2022/10/14 06:14:49;;;;;;;15.75;11.38;;;;;;;-145.49;100.00;62790.56;4949643;28;20054;-73
2022/10/14 06:17:20;;;;;;;13.98;12.13;;;;;;;-145.49;100.00;62790.56;4934637;29;20038;-73
2022/10/14 06:19:47;;;;;;;19.27;14.32;;;;;;;-145.49;100.00;62790.56;4951227;28;20039;-74
2022/10/14 06:22:16;;;;;;;15.05;11.85;;;;;;;-145.49;100.00;62790.56;4950175;28;20314;-74
2022/10/14 06:24:42;;;;;;;20.27;12.68;;;;;;;-145.49;100.00;62790.56;4949950;28;20051;-74
2022/10/14 06:27:12;;;;;;;17.77;11.63;;;;;;;-145.49;100.00;62790.56;4939256;28;20042;-74
2022/10/14 06:29:42;;;;;;;13.98;11.52;;;;;;;-145.49;100.00;62790.56;4954865;28;20050;-74
2022/10/14 06:32:08;;;;;;;20.67;14.15;;;;;;;-145.49;100.00;62790.56;4933077;29;20027;-74
2022/10/14 06:34:39;;;;;;;21.52;13.70;;;;;;;-145.49;100.00;62790.56;4938177;28;20493;-74
2022/10/14 06:37:07;;;;;;;17.23;13.10;;;;;;;-145.49;100.00;62790.56;4952087;28;20032;-74
2022/10/14 06:39:36;;;;;;;22.45;13.43;;;;;;;-145.49;100.00;62790.56;4953525;28;20513;-74
2022/10/14 06:42:05;;;;;;;20.80;14.80;;;;;;;-145.49;100.00;62790.56;4920666;29;20035;-74
2022/10/14 06:44:34;;;;;;;16.67;11.52;;;;;;;-145.49;100.00;62790.56;4936490;29;20035;-74
2022/10/14 06:47:00;;;;;;;16.95;12.70;;;;;;;-145.49;100.00;62790.56;4951737;28;20058;-73
2022/10/14 06:49:28;;;;;;;22.67;14.73;;;;;;;-145.49;100.00;62790.56;4937747;29;20046;-74
2022/10/14 06:51:55;;;;;;;18.10;14.27;;;;;;;-145.49;100.00;62790.56;4935636;28;20405;-74
2022/10/14 06:54:23;;;;;;;20.23;12.55;;;;;;;-145.49;100.00;62790.56;4916606;29;20052;-73
2022/10/14 06:56:51;;;;;;;19.38;14.60;;;;;;;-145.49;100.00;62790.56;4945723;28;20027;-74
2022/10/14 06:59:18;;;;;;;20.70;13.73;;;;;;;-145.49;100.00;62790.56;4954348;28;20155;-74
2022/10/14 07:01:44;;;;;;;21.35;12.63;;;;;;;-145.49;100.00;62790.56;4933763;28;20490;-74
2022/10/14 07:04:10;;;;;;;16.30;12.27;;;;;;;-145.49;100.00;62790.56;4950738;28;20043;-73
2022/10/14 07:06:37;;;;;;;17.70;12.70;;;;;;;-145.49;100.00;62790.56;4921204;28;20046;-74
2022/10/14 07:09:04;;;;;;;15.65;12.82;;;;;;;-145.49;100.00;62790.56;4955016;29;20035;-74
2022/10/14 07:11:32;;;;;;;16.67;11.60;;;;;;;-145.49;100.00;62790.56;4938081;29;20035;-73
2022/10/14 07:14:03;;;;;;;20.90;12.93;;;;;;;-145.49;100.00;62790.56;4950905;28;20046;-74
2022/10/14 07:16:33;;;;;;;18.27;12.23;;;;;;;-145.49;100.00;62790.56;4936866;29;20072;-73
2022/10/14 07:19:00;;;;;;;16.33;11.90;;;;;;;-145.49;100.00;62790.56;4954200;28;20039;-74
2022/10/14 07:21:26;;;;;;;20.00;15.88;;;;;;;-145.49;100.00;62790.56;4954151;28;20031;-73
2022/10/14 07:23:53;;;;;;;18.05;15.27;;;;;;;-145.49;100.00;62790.56;4953046;28;20046;-74
2022/10/14 07:26:19;;;;;;;19.20;14.65;;;;;;;-145.49;100.00;62790.56;4919455;29;20036;-74
2022/10/14 07:28:51;;;;;;;17.52;13.55;;;;;;;-145.49;100.00;62790.56;4942612;28;20040;-74
2022/10/14 07:31:19;;;;;;;21.77;16.40;;;;;;;-145.49;100.00;62790.56;4915468;29;20124;-74
2022/10/14 07:33:45;;;;;;;19.33;14.45;;;;;;;-145.49;100.00;62790.56;4911653;28;20047;-74
2022/10/14 07:36:13;;;;;;;16.58;14.60;;;;;;;-145.49;100.00;62790.56;4947303;28;20035;-74
2022/10/14 07:38:40;;;;;;;16.98;13.02;;;;;;;-145.49;100.00;62790.56;4934246;28;20057;-74
2022/10/14 07:41:15;;;;;;;19.42;14.95;;;;;;;-145.49;100.00;62790.56;4953855;29;20035;-74
2022/10/14 07:43:49;;;;;;;19.33;14.40;;;;;;;-145.49;100.00;62790.56;4939315;28;20043;-74
2022/10/14 07:46:31;;;;;;;16.25;12.38;;;;;;;-145.49;100.00;62790.56;4952956;29;20041;-74
2022/10/14 07:49:06;;;;;;;15.30;12.07;;;;;;;-145.49;100.00;62790.56;4946910;29;20046;-74
2022/10/14 07:51:33;;;;;;;17.38;12.40;;;;;;;-145.49;100.00;62790.56;4950470;29;20035;-75
2022/10/14 07:54:04;;;;;;;19.92;12.77;;;;;;;-145.49;100.00;62790.56;4945352;29;20039;-74
2022/10/14 07:56:33;;;;;;;18.27;11.85;;;;;;;-145.49;100.00;62790.56;4947364;29;20035;-75
2022/10/14 07:59:02;;;;;;;19.00;12.20;;;;;;;-145.49;100.00;62790.56;4952813;28;20032;-75
2022/10/14 08:01:31;;;;;;;16.38;12.88;;;;;;;-145.49;100.00;62790.56;4951787;28;20038;-75
2022/10/14 08:03:59;;;;;;;29.35;10.80;;;;;;;-145.49;100.00;62790.56;4950984;28;20042;-75
2022/10/14 08:06:25;;;;;;;11.90;10.13;;;;;;;-145.49;100.00;62790.56;4952093;28;20054;-74
2022/10/14 08:09:04;;;;;;;14.52;10.77;;;;;;;-145.49;100.00;62790.56;4934950;28;20050;-74
2022/10/14 08:11:32;;;;;;;18.92;12.90;;;;;;;-145.49;100.00;62790.56;4917353;29;20039;-75
2022/10/14 08:13:59;;;;;;;13.48;10.55;;;;;;;-145.49;100.00;62790.56;4928902;29;20043;-74
2022/10/14 08:16:32;;;;;;;15.07;9.25;;;;;;;-145.49;100.00;62790.56;4928101;29;20397;-73
2022/10/14 08:19:01;;;;;;;14.20;9.52;;;;;;;-145.49;100.00;62790.56;4941993;28;20474;-74
2022/10/14 08:21:30;;;;;;;13.13;9.00;;;;;;;-145.49;100.00;62790.56;4915812;29;20501;-74
2022/10/14 08:23:58;;;;;;;9.55;6.93;;;;;;;-145.49;100.00;62790.56;4929760;29;20031;-74
2022/10/14 08:26:31;;;;;;;11.27;8.63;;;;;;;-145.49;100.00;62790.56;4930995;29;20034;-74
2022/10/14 08:29:00;;;;;;;11.88;8.38;;;;;;;-145.49;100.00;62790.56;4945152;28;20046;-73
2022/10/14 08:31:29;;;;;;;10.55;6.93;;;;;;;-145.49;100.00;62790.56;4942460;28;20486;-73
2022/10/14 08:33:58;;;;;;;14.73;8.90;;;;;;;-145.49;100.00;62790.56;4948148;28;20050;-73
2022/10/14 08:36:24;;;;;;;14.95;9.10;;;;;;;-145.49;100.00;62790.56;4931726;29;20031;-74
2022/10/14 08:38:52;;;;;;;12.43;8.18;;;;;;;-145.49;100.00;62790.56;4948843;28;20038;-74
2022/10/14 08:41:22;;;;;;;10.30;7.88;;;;;;;-145.49;100.00;62790.56;4917002;29;20031;-74
2022/10/14 08:43:56;;;;;;;13.75;9.10;;;;;;;-145.49;100.00;62790.56;4948562;28;20046;-75
2022/10/14 08:46:37;;;;;;;10.27;7.75;;;;;;;-145.49;100.00;62790.56;4931725;29;20046;-73
2022/10/14 08:49:15;;;;;;;11.10;8.07;;;;;;;-145.49;100.00;62790.56;4926302;29;20406;-74
2022/10/14 08:51:47;;;;;;;9.77;8.80;;;;;;;-145.49;100.00;62790.56;4946385;28;20042;-74
2022/10/14 08:54:28;;;;;;;12.93;8.13;;;;;;;-145.49;100.00;62790.56;4946138;28;20781;-74
2022/10/14 08:56:55;;;;;;;8.77;7.57;;;;;;;-145.49;100.00;62790.56;4945482;28;20043;-73
2022/10/14 08:59:23;;;;;;;9.45;7.07;;;;;;;-145.49;100.00;62790.56;4947837;28;20042;-74
2022/10/14 09:01:59;;;;;;;12.63;8.80;;;;;;;-145.49;100.00;62790.56;4905909;28;20062;-74
2022/10/14 09:04:34;;;;;;;12.07;8.57;;;;;;;-145.49;100.00;62790.56;4928706;29;20046;-74
2022/10/14 09:07:01;;;;;;;14.90;9.30;;;;;;;-145.49;100.00;62790.56;4933163;29;20044;-74
2022/10/14 09:09:40;;;;;;;17.45;7.63;;;;;;;-145.49;100.00;62790.56;4938474;28;20050;-74
2022/10/14 09:12:13;;;;;;;11.73;8.45;;;;;;;-145.49;100.00;62790.56;4927656;29;20380;-74
2022/10/14 09:14:47;;;;;;;10.10;7.28;;;;;;;-145.49;100.00;62790.56;4939338;28;20054;-74
2022/10/14 09:17:21;;;;;;;10.07;6.78;;;;;;;-145.49;100.00;62790.56;4906160;29;20039;-74
2022/10/14 09:19:59;;;;;;;9.50;7.43;;;;;;;-145.49;100.00;62790.56;4938747;28;20047;-74
2022/10/14 09:22:29;;;;;;;14.05;8.82;;;;;;;-145.49;100.00;62790.56;4923321;29;20047;-74
2022/10/14 09:25:00;;;;;;;;;;;;;;;-145.49;100.00;62790.56;4942086;28;20035;-74
2022/10/14 09:27:28;;;;;;;12.00;9.70;;;;;;;-145.49;100.00;62790.56;4929480;29;19918;-74
2022/10/14 09:30:09;;;;;;;10.10;7.95;;;;;;;-145.49;100.00;62790.56;4949173;28;20035;-74
2022/10/14 09:32:44;;;;;;;22.05;9.77;;;;;;;-145.49;100.00;62790.56;4943671;28;20035;-74
2022/10/14 09:35:16;;;;;;;12.43;8.73;;;;;;;-145.49;100.00;62790.56;4946978;28;20035;-75
2022/10/14 09:37:44;;;;;;;16.75;10.43;;;;;;;-145.49;100.00;62790.56;4943576;28;20042;-74
2022/10/14 09:40:10;;;;;;;16.10;8.43;;;;;;;-145.49;100.00;62790.56;4948413;28;20047;-76
2022/10/14 09:42:47;;;;;;;9.82;8.85;;;;;;;-145.49;100.00;62790.56;4946918;28;20039;-75
2022/10/14 09:45:17;;;;;;;10.90;9.30;;;;;;;-145.49;100.00;62790.56;4949867;28;20027;-75
2022/10/14 09:48:06;;;;;;;15.15;9.50;;;;;;;-145.49;100.00;62790.56;4950964;29;20035;-75
2022/10/14 09:50:41;;;;;;;10.00;8.20;;;;;;;-145.49;100.00;62790.56;4933869;29;20050;-75
2022/10/14 09:53:16;;;;;;;10.00;8.23;;;;;;;-145.49;100.00;62790.56;4953493;29;20057;-75
2022/10/14 09:55:53;;;;;;;11.77;7.57;;;;;;;-145.49;100.00;62790.56;4950509;29;20282;-75
2022/10/14 09:58:37;;;;;;;12.82;8.00;;;;;;;-145.49;100.00;62790.56;4938810;29;20046;-75
2022/10/14 10:01:22;;;;;;;10.20;8.15;;;;;;;-145.49;100.00;62790.56;4947174;29;20048;-76
2022/10/14 10:03:49;;;;;;;11.60;9.45;;;;;;;-145.49;100.00;62790.56;4954368;28;20042;-75
2022/10/14 10:06:20;;;;;;;14.50;7.43;;;;;;;-145.49;100.00;62790.56;4945022;29;20043;-75
2022/10/14 10:08:52;;;;;;;8.07;5.50;;;;;;;-145.49;100.00;62790.56;4929092;29;20039;-75
2022/10/14 10:11:38;;;;;;;12.15;7.63;;;;;;;-145.49;100.00;62790.56;4945087;29;20051;-75
2022/10/14 10:14:16;;;;;;;12.23;6.82;;;;;;;-145.49;100.00;62790.56;4953025;29;20039;-75
2022/10/14 10:16:44;;;;;;;10.50;6.25;;;;;;;-145.49;100.00;62790.56;4950393;28;20031;-74
2022/10/14 10:19:28;;;;;;;8.32;6.18;;;;;;;-145.49;100.00;62790.56;4942709;28;20035;-75
2022/10/14 10:22:16;;;;;;;9.00;7.18;;;;;;;-145.49;100.00;62790.56;4953102;29;20043;-75
2022/10/14 10:24:46;;;;;;;10.93;7.47;;;;;;;-145.49;100.00;62790.56;4920323;29;20042;-75
2022/10/14 10:27:48;;;;;;;8.80;5.80;;;;;;;-145.49;100.00;62790.56;4926762;29;20039;-75
2022/10/14 10:30:16;;;;;;;10.18;6.47;;;;;;;-145.49;100.00;62790.56;4949856;29;20042;-75
2022/10/14 10:33:13;;;;;;;11.27;5.35;;;;;;;-145.49;100.00;62790.56;4937938;29;20047;-75
2022/10/14 10:36:00;;;;;;;9.68;6.05;;;;;;;-145.49;100.00;62790.56;4952357;29;20040;-76
2022/10/14 10:38:58;;;;;;;10.65;5.80;;;;;;;-145.49;100.00;62790.56;4946769;29;20031;-76
2022/10/14 10:41:47;;;;;;;8.93;6.25;;;;;;;-145.49;100.00;62790.56;4948223;29;20039;-75
2022/10/14 10:44:21;;;;;;;10.60;5.63;;;;;;;-145.49;100.00;62790.56;4936422;29;20042;-74
2022/10/14 10:47:23;;;;;;;7.63;6.40;;;;;;;-145.49;100.00;62790.56;4939513;29;20042;-75
2022/10/14 10:50:10;;;;;;;11.10;6.10;;;;;;;-145.49;100.00;62790.56;4919875;29;20059;-75
2022/10/14 10:52:55;;;;;;;9.75;6.70;;;;;;;-145.49;100.00;62790.56;4945152;29;20035;-76
2022/10/14 10:55:27;;;;;;;8.27;6.60;;;;;;;-145.49;100.00;62790.56;4953544;29;20389;-75
2022/10/14 10:58:16;;;;;;;9.30;5.55;;;;;;;-145.49;100.00;62790.56;4950891;29;20036;-76
2022/10/14 11:01:07;;;;;;;9.27;7.47;;;;;;;-145.49;100.00;62790.56;4925403;28;20043;-76
2022/10/14 11:03:47;;;;;;;9.60;7.15;;;;;;;-145.49;100.00;62790.56;4947475;28;20038;-75
2022/10/14 11:12:32;;;;;;;8.98;6.85;;;;;;;-145.49;100.00;62790.56;4949977;28;20422;-75
2022/10/14 11:15:12;;;;;;;8.55;6.88;;;;;;;-145.49;100.00;62790.56;4959728;28;20331;-75
2022/10/14 11:17:57;;;;;;;15.18;11.18;;;;;;;-145.49;100.00;62790.56;4942031;29;20035;-75
2022/10/14 11:20:37;;;;;;;21.42;11.85;;;;;;;-145.49;100.00;62790.56;4952429;28;20046;-75
2022/10/14 11:23:36;;;;;;;15.48;7.95;;;;;;;-145.49;100.00;62790.56;4948244;28;20055;-76
2022/10/14 11:26:26;;;;;;;12.07;7.95;;;;;;;-145.49;100.00;62790.56;4944861;28;20031;-77
2022/10/14 11:29:18;;;;;;;8.27;7.47;;;;;;;-145.49;100.00;62790.56;4952703;28;20051;-75
2022/10/14 11:31:55;;;;;;;12.77;8.85;;;;;;;-145.49;100.00;62790.56;4916017;29;20054;-76